createdAt,value
2017-12-29T00:01:17.570Z,3.93
2017-12-29T00:03:45.303Z,3.00
2017-12-29T00:06:12.879Z,5.57
2017-12-29T00:08:40.529Z,3.67
2017-12-29T00:11:08.206Z,5.13
2017-12-29T00:13:35.766Z,5.53
2017-12-29T00:16:03.325Z,5.00
2017-12-29T00:18:31.211Z,4.53
2017-12-29T00:20:58.769Z,5.13
2017-12-29T00:23:26.649Z,3.77
2017-12-29T00:25:54.345Z,4.63
2017-12-29T00:28:22.083Z,3.83
2017-12-29T00:30:49.646Z,3.70
2017-12-29T00:33:17.205Z,5.90
2017-12-29T00:35:44.814Z,3.03
2017-12-29T00:38:12.527Z,3.10
2017-12-29T00:40:40.078Z,4.47
2017-12-29T00:43:07.641Z,3.03
2017-12-29T00:45:35.199Z,2.20
2017-12-29T00:48:02.822Z,3.30
2017-12-29T00:50:30.381Z,2.70
2017-12-29T00:52:57.942Z,3.27
2017-12-29T00:55:25.642Z,2.17
2017-12-29T00:57:53.193Z,2.80
2017-12-29T01:00:21.015Z,2.13
2017-12-29T01:02:48.834Z,2.67
2017-12-29T01:05:16.382Z,2.80
2017-12-29T01:07:44.170Z,2.70
2017-12-29T01:10:11.717Z,2.23
2017-12-29T01:12:39.506Z,2.20
2017-12-29T01:15:07.079Z,2.93
2017-12-29T01:17:34.660Z,2.80
2017-12-29T01:20:02.239Z,5.70
2017-12-29T01:22:29.811Z,8.47
2017-12-29T01:24:57.506Z,7.67
2017-12-29T01:27:25.770Z,5.27
2017-12-29T01:29:53.534Z,3.87
2017-12-29T01:32:21.116Z,4.23
2017-12-29T01:34:48.782Z,4.33
2017-12-29T01:37:16.431Z,4.00
2017-12-29T01:39:44.206Z,3.30
2017-12-29T01:42:11.765Z,4.43
2017-12-29T01:44:40.746Z,4.33
2017-12-29T01:47:08.565Z,3.60
2017-12-29T01:49:36.139Z,7.27
2017-12-29T01:52:03.902Z,6.00
2017-12-29T01:54:31.785Z,3.53
2017-12-29T01:56:59.345Z,2.77
2017-12-29T01:59:27.057Z,2.93
2017-12-29T02:01:54.623Z,2.40
2017-12-29T02:04:22.175Z,3.43
2017-12-29T02:06:50.010Z,3.20
2017-12-29T02:09:17.728Z,2.73
2017-12-29T02:11:45.297Z,3.80
2017-12-29T02:14:12.942Z,3.10
2017-12-29T02:16:40.489Z,2.57
2017-12-29T02:19:08.101Z,3.10
2017-12-29T02:21:35.661Z,2.90
2017-12-29T02:24:03.220Z,4.37
2017-12-29T02:26:30.955Z,3.20
2017-12-29T02:28:58.513Z,2.20
2017-12-29T02:31:26.129Z,2.70
2017-12-29T02:33:53.686Z,2.33
2017-12-29T02:36:21.424Z,3.47
2017-12-29T02:38:48.991Z,4.70
2017-12-29T02:41:16.554Z,3.27
2017-12-29T02:43:44.186Z,2.30
2017-12-29T02:46:11.752Z,3.40
2017-12-29T02:48:39.321Z,2.30
2017-12-29T02:51:06.886Z,3.50
2017-12-29T02:53:34.441Z,4.30
2017-12-29T02:56:02.083Z,3.03
2017-12-29T02:58:29.638Z,4.57
2017-12-29T03:00:57.379Z,3.37
2017-12-29T03:03:24.939Z,3.57
2017-12-29T03:05:52.498Z,2.73
2017-12-29T03:08:20.166Z,4.33
2017-12-29T03:10:47.736Z,2.60
2017-12-29T03:13:15.491Z,2.93
2017-12-29T03:15:43.085Z,3.17
2017-12-29T03:18:10.794Z,4.53
2017-12-29T03:20:38.646Z,6.13
2017-12-29T03:23:06.354Z,3.33
2017-12-29T03:25:33.909Z,4.53
2017-12-29T03:28:01.659Z,8.67
2017-12-29T03:30:29.419Z,10.80
2017-12-29T03:32:57.030Z,6.20
2017-12-29T03:35:24.585Z,6.77
2017-12-29T03:37:52.137Z,5.90
2017-12-29T03:40:19.698Z,6.80
2017-12-29T03:42:47.258Z,10.67
2017-12-29T03:45:14.874Z,24.17
2017-12-29T03:47:42.465Z,13.00
2017-12-29T03:50:10.021Z,4.90
2017-12-29T03:52:37.563Z,7.40
2017-12-29T03:55:05.198Z,3.73
2017-12-29T03:57:33.115Z,6.77
2017-12-29T04:00:00.678Z,4.70
2017-12-29T04:02:28.451Z,4.33
2017-12-29T04:04:56.046Z,5.57
2017-12-29T04:07:23.605Z,18.17
2017-12-29T04:09:51.218Z,9.87
2017-12-29T04:12:19.023Z,8.47
2017-12-29T04:14:46.845Z,5.63
2017-12-29T04:17:14.659Z,7.73
2017-12-29T04:19:42.380Z,8.23
2017-12-29T04:22:10.065Z,7.90
2017-12-29T04:24:37.706Z,7.37
2017-12-29T04:27:05.432Z,5.73
2017-12-29T04:29:32.993Z,6.50
2017-12-29T04:32:00.769Z,8.27
2017-12-29T04:34:28.377Z,7.67
2017-12-29T04:36:55.946Z,7.67
2017-12-29T04:39:23.532Z,7.77
2017-12-29T04:41:51.089Z,7.83
2017-12-29T04:44:18.647Z,7.77
2017-12-29T04:46:46.262Z,6.20
2017-12-29T04:49:14.093Z,7.30
2017-12-29T04:51:41.654Z,9.47
2017-12-29T04:54:09.230Z,11.73
2017-12-29T04:56:36.786Z,15.60
2017-12-29T04:59:04.416Z,10.50
2017-12-29T05:01:32.084Z,11.70
2017-12-29T05:03:59.901Z,10.27
2017-12-29T05:06:27.492Z,11.70
2017-12-29T05:08:55.046Z,9.93
2017-12-29T05:11:22.857Z,9.47
2017-12-29T05:13:50.431Z,19.67
2017-12-29T05:16:17.994Z,24.17
2017-12-29T05:18:45.566Z,21.87
2017-12-29T05:21:13.121Z,20.50
2017-12-29T05:23:40.746Z,17.73
2017-12-29T05:26:08.312Z,16.27
2017-12-29T05:28:35.878Z,19.47
2017-12-29T05:31:03.698Z,14.17
2017-12-29T05:33:31.272Z,12.17
2017-12-29T05:35:58.919Z,14.33
2017-12-29T05:38:26.482Z,14.53
2017-12-29T05:40:54.251Z,18.43
2017-12-29T05:43:21.878Z,15.17
2017-12-29T05:45:49.450Z,14.80
2017-12-29T05:48:17.065Z,14.37
2017-12-29T05:50:44.621Z,18.13
2017-12-29T05:53:12.333Z,18.40
2017-12-29T05:55:39.910Z,16.07
2017-12-29T05:58:07.580Z,17.03
2017-12-29T06:00:35.416Z,17.40
2017-12-29T06:03:03.234Z,23.90
2017-12-29T06:05:30.866Z,25.60
2017-12-29T06:07:58.495Z,26.23
2017-12-29T06:10:26.057Z,24.00
2017-12-29T06:12:53.904Z,13.97
2017-12-29T06:15:21.722Z,19.30
2017-12-29T06:17:49.282Z,19.43
2017-12-29T06:20:17.059Z,17.70
2017-12-29T06:22:44.777Z,16.23
2017-12-29T06:25:12.446Z,17.87
2017-12-29T06:27:40.009Z,14.80
2017-12-29T06:30:07.702Z,19.47
2017-12-29T06:32:35.282Z,23.33
2017-12-29T06:35:03.070Z,22.47
2017-12-29T06:37:30.739Z,24.47
2017-12-29T06:39:58.305Z,22.20
2017-12-29T06:42:25.870Z,17.73
2017-12-29T06:44:53.442Z,17.17
2017-12-29T06:47:21.084Z,22.20
2017-12-29T06:49:48.712Z,25.77
2017-12-29T06:52:16.274Z,21.00
2017-12-29T06:54:43.843Z,25.57
2017-12-29T06:57:11.519Z,29.50
2017-12-29T06:59:39.248Z,28.97
2017-12-29T07:02:06.873Z,31.67
2017-12-29T07:04:34.434Z,29.10
2017-12-29T07:07:02.198Z,32.30
2017-12-29T07:09:29.810Z,29.00
2017-12-29T07:11:57.373Z,32.40
2017-12-29T07:14:24.986Z,31.83
2017-12-29T07:16:52.545Z,25.57
2017-12-29T07:19:20.202Z,22.20
2017-12-29T07:21:47.773Z,24.10
2017-12-29T07:24:15.342Z,17.20
2017-12-29T07:26:42.973Z,20.90
2017-12-29T07:29:10.547Z,22.37
2017-12-29T07:31:38.110Z,29.60
2017-12-29T07:34:05.689Z,34.87
2017-12-29T07:36:33.252Z,33.13
2017-12-29T07:39:00.883Z,30.10
2017-12-29T07:41:28.449Z,33.70
2017-12-29T07:43:56.009Z,31.07
2017-12-29T07:46:23.577Z,32.50
2017-12-29T07:48:51.144Z,31.57
2017-12-29T07:51:19.123Z,37.10
2017-12-29T07:53:46.681Z,33.37
2017-12-29T07:56:14.247Z,33.43
2017-12-29T07:58:41.973Z,41.60
2017-12-29T08:01:09.692Z,38.60
2017-12-29T08:03:37.603Z,34.63
2017-12-29T08:06:05.170Z,26.63
2017-12-29T08:08:32.812Z,42.63
2017-12-29T08:11:00.457Z,17.23
2017-12-29T08:13:28.285Z,14.40
2017-12-29T08:15:55.898Z,27.50
2017-12-29T08:18:23.461Z,21.30
2017-12-29T08:20:51.127Z,15.90
2017-12-29T08:23:18.958Z,13.43
2017-12-29T08:25:46.538Z,11.30
2017-12-29T08:28:14.297Z,14.27
2017-12-29T08:30:41.833Z,15.00
2017-12-29T08:33:09.401Z,12.00
2017-12-29T08:35:36.974Z,12.93
2017-12-29T08:38:04.763Z,20.30
2017-12-29T08:40:32.652Z,21.63
2017-12-29T08:43:00.214Z,20.57
2017-12-29T08:45:28.025Z,79.63
2017-12-29T08:47:55.837Z,19.30
2017-12-29T08:50:23.474Z,28.70
2017-12-29T08:52:51.098Z,49.90
2017-12-29T08:55:18.656Z,67.47
2017-12-29T08:57:46.366Z,30.83
2017-12-29T09:00:13.950Z,18.03
2017-12-29T09:02:41.509Z,45.90
2017-12-29T09:05:09.254Z,24.00
2017-12-29T09:07:36.826Z,22.70
2017-12-29T09:10:04.398Z,30.23
2017-12-29T09:12:32.217Z,27.13
2017-12-29T09:14:59.763Z,27.33
2017-12-29T09:17:27.552Z,30.10
2017-12-29T09:19:55.371Z,38.13
2017-12-29T09:22:22.995Z,34.10
2017-12-29T09:24:50.598Z,31.00
2017-12-29T09:27:18.288Z,32.17
2017-12-29T09:29:46.149Z,37.40
2017-12-29T09:32:13.718Z,27.20
2017-12-29T09:34:41.479Z,27.73
2017-12-29T09:37:09.089Z,24.80
2017-12-29T09:39:35.941Z,24.97
2017-12-29T09:42:03.575Z,28.03
2017-12-29T09:44:31.329Z,23.67
2017-12-29T09:46:59.068Z,29.57
2017-12-29T09:49:26.654Z,22.07
2017-12-29T09:51:54.267Z,27.67
2017-12-29T09:54:22.097Z,25.77
2017-12-29T09:56:49.664Z,28.90
2017-12-29T09:59:17.238Z,27.53
2017-12-29T10:01:44.813Z,28.80
2017-12-29T10:04:12.592Z,31.17
2017-12-29T10:06:40.225Z,30.40
2017-12-29T10:09:07.798Z,36.93
2017-12-29T10:11:35.381Z,55.27
2017-12-29T10:14:03.055Z,33.97
2017-12-29T10:16:30.619Z,37.93
2017-12-29T10:18:58.401Z,44.87
2017-12-29T10:21:26.008Z,36.77
2017-12-29T10:23:53.596Z,37.47
2017-12-29T10:26:21.170Z,34.13
2017-12-29T10:28:48.768Z,34.47
2017-12-29T10:31:16.590Z,95.13
2017-12-29T10:33:44.171Z,50.23
2017-12-29T10:36:11.737Z,48.37
2017-12-29T10:38:39.314Z,36.83
2017-12-29T10:41:06.876Z,37.57
2017-12-29T10:43:34.680Z,37.43
2017-12-29T10:46:02.273Z,55.47
2017-12-29T10:48:29.854Z,34.03
2017-12-29T10:50:57.440Z,60.77
2017-12-29T10:53:25.254Z,47.40
2017-12-29T10:55:52.877Z,89.40
2017-12-29T10:58:20.461Z,157.53
2017-12-29T11:00:48.235Z,40.20
2017-12-29T11:03:15.814Z,21.73
2017-12-29T11:05:43.385Z,26.47
2017-12-29T11:08:11.078Z,30.13
2017-12-29T11:10:38.668Z,25.37
2017-12-29T11:13:06.229Z,41.63
2017-12-29T11:15:33.806Z,30.57
2017-12-29T11:18:01.504Z,25.30
2017-12-29T11:20:29.349Z,30.77
2017-12-29T11:22:57.171Z,39.70
2017-12-29T11:25:24.733Z,25.37
2017-12-29T11:27:52.396Z,18.83
2017-12-29T11:30:19.971Z,29.93
2017-12-29T11:32:47.597Z,21.73
2017-12-29T11:35:15.358Z,29.33
2017-12-29T11:37:42.934Z,16.93
2017-12-29T11:40:10.507Z,16.97
2017-12-29T11:42:38.311Z,12.83
2017-12-29T11:45:06.023Z,11.00
2017-12-29T11:47:33.607Z,15.67
2017-12-29T11:50:01.171Z,16.23
2017-12-29T11:52:28.983Z,17.07
2017-12-29T11:54:56.719Z,17.43
2017-12-29T11:57:24.459Z,18.37
2017-12-29T11:59:52.026Z,18.60
2017-12-29T12:02:19.590Z,17.97
2017-12-29T12:04:47.265Z,26.03
2017-12-29T12:07:15.804Z,16.37
2017-12-29T12:09:43.429Z,23.40
2017-12-29T12:12:11.233Z,20.60
2017-12-29T12:14:38.802Z,15.40
2017-12-29T12:17:06.382Z,17.37
2017-12-29T12:19:34.192Z,12.33
2017-12-29T12:22:01.863Z,9.27
2017-12-29T12:24:29.399Z,7.87
2017-12-29T12:26:56.958Z,11.40
2017-12-29T12:29:24.757Z,12.83
2017-12-29T12:31:52.576Z,16.03
2017-12-29T12:34:20.494Z,14.27
2017-12-29T12:36:48.054Z,31.47
2017-12-29T12:39:15.831Z,29.23
2017-12-29T12:41:45.694Z,13.77
2017-12-29T12:44:13.264Z,16.40
2017-12-29T12:46:40.943Z,13.77
2017-12-29T12:49:08.524Z,16.40
2017-12-29T12:51:36.090Z,15.73
2017-12-29T12:54:03.665Z,13.40
2017-12-29T12:56:31.237Z,15.87
2017-12-29T12:58:58.929Z,16.10
2017-12-29T13:01:26.700Z,15.70
2017-12-29T13:03:54.309Z,17.97
2017-12-29T13:06:21.925Z,19.63
2017-12-29T13:08:49.509Z,13.33
2017-12-29T13:11:17.110Z,14.43
2017-12-29T13:13:44.889Z,14.03
2017-12-29T13:16:12.495Z,12.73
2017-12-29T13:18:40.090Z,13.17
2017-12-29T13:21:07.661Z,18.00
2017-12-29T13:23:35.461Z,24.27
2017-12-29T13:26:03.470Z,15.07
2017-12-29T13:28:31.198Z,15.30
2017-12-29T13:30:58.777Z,18.97
2017-12-29T13:33:26.343Z,19.27
2017-12-29T13:35:53.998Z,16.77
2017-12-29T13:38:21.570Z,12.17
2017-12-29T13:40:49.130Z,12.83
2017-12-29T13:43:16.797Z,14.50
2017-12-29T13:45:44.363Z,11.93
2017-12-29T13:48:11.989Z,11.17
2017-12-29T13:50:39.721Z,10.43
2017-12-29T13:53:07.343Z,8.80
2017-12-29T13:55:35.197Z,8.77
2017-12-29T13:58:02.790Z,9.73
2017-12-29T14:00:30.398Z,6.67
2017-12-29T14:02:57.983Z,10.70
2017-12-29T14:05:25.558Z,8.40
2017-12-29T14:07:53.157Z,11.60
2017-12-29T14:10:20.801Z,10.50
2017-12-29T14:12:48.481Z,10.43
2017-12-29T14:15:16.153Z,10.50
2017-12-29T14:17:43.691Z,9.83
2017-12-29T14:20:11.274Z,21.50
2017-12-29T14:22:38.850Z,18.33
2017-12-29T14:25:06.710Z,77.70
2017-12-29T14:27:34.530Z,96.03
2017-12-29T14:30:02.133Z,53.53
2017-12-29T14:32:29.969Z,45.00
2017-12-29T14:34:57.547Z,64.60
2017-12-29T14:37:25.237Z,91.13
2017-12-29T14:39:52.836Z,67.87
2017-12-29T14:42:20.638Z,69.03
2017-12-29T14:44:48.356Z,139.27
2017-12-29T14:47:16.121Z,95.23
2017-12-29T14:49:44.095Z,64.83
2017-12-29T14:52:11.658Z,48.17
2017-12-29T14:54:39.431Z,55.00
2017-12-29T14:57:06.983Z,53.03
2017-12-29T14:59:34.522Z,41.60
2017-12-29T15:02:02.248Z,44.43
2017-12-29T15:04:29.816Z,52.47
2017-12-29T15:06:57.620Z,62.53
2017-12-29T15:09:25.212Z,67.20
2017-12-29T15:11:52.779Z,59.13
2017-12-29T15:14:20.394Z,58.57
2017-12-29T15:16:48.076Z,59.87
2017-12-29T15:19:15.909Z,47.53
2017-12-29T15:21:43.482Z,32.90
2017-12-29T15:24:11.035Z,38.30
2017-12-29T15:26:38.750Z,44.60
2017-12-29T15:29:06.372Z,63.67
2017-12-29T15:31:33.994Z,56.73
2017-12-29T15:34:01.574Z,93.50
2017-12-29T15:36:29.334Z,96.33
2017-12-29T15:38:56.938Z,88.53
2017-12-29T15:41:24.670Z,65.53
2017-12-29T15:43:52.234Z,87.60
2017-12-29T15:46:19.791Z,126.87
2017-12-29T15:48:47.345Z,95.63
2017-12-29T15:51:25.882Z,50.43
2017-12-29T15:53:53.483Z,227.57
2017-12-29T15:56:21.211Z,97.97
2017-12-29T15:58:48.785Z,80.87
2017-12-29T16:01:26.328Z,75.20
2017-12-29T16:03:53.902Z,163.13
2017-12-29T16:06:21.513Z,162.40
2017-12-29T16:08:49.236Z,127.13
2017-12-29T16:11:16.802Z,120.30
2017-12-29T16:13:44.550Z,125.23
2017-12-29T16:16:12.130Z,137.90
2017-12-29T16:18:39.912Z,214.00
2017-12-29T16:21:07.582Z,189.63
2017-12-29T16:23:35.232Z,175.33
2017-12-29T16:26:02.835Z,170.93
2017-12-29T16:28:30.415Z,172.70
2017-12-29T16:30:58.030Z,1397.87
2017-12-29T16:33:25.654Z,452.53
2017-12-29T16:35:53.340Z,741.03
2017-12-29T16:38:20.905Z,600.27
2017-12-29T16:40:48.471Z,369.70
2017-12-29T16:43:16.084Z,420.67
2017-12-29T16:45:43.866Z,218.50
2017-12-29T16:48:11.509Z,193.30
2017-12-29T16:50:39.141Z,274.50
2017-12-29T16:53:06.842Z,311.87
2017-12-29T16:55:34.491Z,287.47
2017-12-29T16:58:02.177Z,257.23
2017-12-29T17:00:29.929Z,176.47
2017-12-29T17:02:57.634Z,907.03
2017-12-29T17:05:25.701Z,300.87
2017-12-29T17:07:53.276Z,1117.23
2017-12-29T17:10:20.904Z,892.33
2017-12-29T17:12:48.712Z,484.13
2017-12-29T17:15:16.337Z,714.30
2017-12-29T17:17:43.937Z,401.87
2017-12-29T17:20:11.534Z,287.20
2017-12-29T17:22:39.234Z,267.23
2017-12-29T17:25:06.801Z,268.23
2017-12-29T17:27:34.465Z,282.67
2017-12-29T17:30:02.052Z,323.20
2017-12-29T17:32:29.622Z,279.00
2017-12-29T17:34:57.473Z,299.63
2017-12-29T17:37:25.043Z,122.73
2017-12-29T17:39:52.670Z,316.37
2017-12-29T17:42:20.389Z,187.37
2017-12-29T17:44:47.979Z,409.70
2017-12-29T17:47:15.752Z,359.20
2017-12-29T17:49:43.315Z,282.03
2017-12-29T17:52:10.889Z,302.13
2017-12-29T17:54:38.780Z,195.37
2017-12-29T17:57:06.564Z,173.27
2017-12-29T17:59:34.429Z,165.93
2017-12-29T18:02:02.372Z,155.77
2017-12-29T18:04:30.193Z,167.47
2017-12-29T18:06:57.770Z,168.87
2017-12-29T18:09:25.374Z,102.03
2017-12-29T18:11:53.315Z,77.97
2017-12-29T18:14:21.134Z,58.97
2017-12-29T18:16:48.826Z,69.07
2017-12-29T18:19:16.649Z,62.53
2017-12-29T18:21:44.314Z,30.03
2017-12-29T18:24:12.138Z,23.93
2017-12-29T18:26:39.758Z,28.30
2017-12-29T18:29:07.573Z,41.87
2017-12-29T18:31:35.406Z,37.43
2017-12-29T18:34:03.849Z,33.83
2017-12-29T18:36:31.572Z,25.73
2017-12-29T18:38:59.927Z,25.93
2017-12-29T18:41:27.500Z,21.13
2017-12-29T18:43:55.057Z,20.80
2017-12-29T18:46:22.847Z,43.13
2017-12-29T18:48:50.473Z,22.93
2017-12-29T18:51:18.038Z,25.43
2017-12-29T18:53:46.098Z,38.47
2017-12-29T18:56:13.665Z,36.20
2017-12-29T18:58:41.421Z,28.90
2017-12-29T19:01:09.681Z,31.10
2017-12-29T19:03:37.261Z,19.10
2017-12-29T19:06:04.820Z,19.10
2017-12-29T19:08:32.607Z,35.63
2017-12-29T19:11:00.190Z,26.00
2017-12-29T19:13:28.042Z,23.07
2017-12-29T19:15:55.761Z,36.83
2017-12-29T19:18:23.579Z,27.23
2017-12-29T19:20:51.155Z,24.40
2017-12-29T19:23:18.718Z,23.50
2017-12-29T19:25:46.353Z,20.43
2017-12-29T19:28:13.924Z,18.50
2017-12-29T19:30:41.634Z,17.97
2017-12-29T19:33:09.487Z,20.47
2017-12-29T19:35:37.050Z,52.93
2017-12-29T19:38:04.777Z,25.17
2017-12-29T19:40:32.342Z,22.73
2017-12-29T19:43:00.039Z,20.47
2017-12-29T19:45:27.669Z,22.17
2017-12-29T19:47:55.230Z,17.30
2017-12-29T19:50:22.861Z,19.93
2017-12-29T19:52:50.605Z,25.53
2017-12-29T19:55:18.241Z,25.27
2017-12-29T19:57:45.818Z,23.83
2017-12-29T20:00:13.382Z,23.97
2017-12-29T20:02:40.994Z,30.30
2017-12-29T20:05:08.565Z,26.20
2017-12-29T20:07:36.350Z,19.67
2017-12-29T20:10:03.982Z,21.50
2017-12-29T20:12:31.829Z,19.23
2017-12-29T20:14:59.444Z,23.43
2017-12-29T20:17:27.211Z,22.77
2017-12-29T20:19:54.852Z,34.20
2017-12-29T20:22:22.649Z,55.37
2017-12-29T20:24:50.213Z,15.87
2017-12-29T20:27:18.087Z,14.73
2017-12-29T20:29:45.629Z,24.43
2017-12-29T20:32:13.187Z,14.33
2017-12-29T20:34:41.037Z,21.63
2017-12-29T20:37:08.618Z,21.77
2017-12-29T20:39:36.439Z,11.77
2017-12-29T20:42:04.193Z,17.67
2017-12-29T20:44:31.917Z,17.17
2017-12-29T20:46:59.514Z,17.63
2017-12-29T20:49:27.069Z,13.17
2017-12-29T20:51:54.745Z,15.93
2017-12-29T20:54:22.461Z,13.10
2017-12-29T20:56:50.179Z,17.17
2017-12-29T20:59:17.781Z,22.13
2017-12-29T21:01:45.367Z,20.63
2017-12-29T21:04:13.018Z,15.70
2017-12-29T21:06:40.780Z,17.10
2017-12-29T21:09:08.362Z,15.13
2017-12-29T21:11:36.075Z,16.03
2017-12-29T21:14:03.627Z,15.47
2017-12-29T21:16:31.408Z,17.47
2017-12-29T21:18:59.123Z,16.90
2017-12-29T21:21:26.840Z,19.50
2017-12-29T21:23:54.657Z,18.93
2017-12-29T21:26:22.418Z,17.57
2017-12-29T21:28:50.010Z,14.70
2017-12-29T21:31:17.583Z,27.73
2017-12-29T21:33:45.167Z,16.33
2017-12-29T21:36:12.770Z,16.90
2017-12-29T21:38:40.380Z,18.20
2017-12-29T21:41:07.998Z,18.43
2017-12-29T21:43:35.563Z,13.57
2017-12-29T21:46:03.135Z,18.00
2017-12-29T21:48:30.698Z,14.87
2017-12-29T21:50:58.497Z,18.00
2017-12-29T21:53:26.120Z,18.17
2017-12-29T21:55:53.714Z,15.63
2017-12-29T21:58:21.302Z,15.23
2017-12-29T22:00:48.904Z,17.63
2017-12-29T22:03:16.473Z,18.33
2017-12-29T22:05:44.128Z,13.57
2017-12-29T22:08:11.694Z,17.07
2017-12-29T22:10:39.257Z,13.37
2017-12-29T22:13:06.829Z,16.43
2017-12-29T22:15:34.394Z,21.93
2017-12-29T22:18:02.014Z,27.97
2017-12-29T22:20:29.574Z,18.40
2017-12-29T22:22:57.138Z,16.83
2017-12-29T22:25:24.707Z,18.00
2017-12-29T22:27:52.253Z,21.73
2017-12-29T22:30:20.081Z,18.03
2017-12-29T22:32:47.645Z,18.37
2017-12-29T22:35:15.210Z,15.47
2017-12-29T22:37:42.813Z,17.53
2017-12-29T22:40:10.555Z,109.07
2017-12-29T22:42:38.226Z,22.43
2017-12-29T22:45:05.808Z,57.33
2017-12-29T22:47:33.358Z,21.43
2017-12-29T22:50:01.018Z,16.70
2017-12-29T22:52:28.589Z,15.77
2017-12-29T22:54:56.464Z,17.23
2017-12-29T22:57:24.279Z,17.83
2017-12-29T22:59:51.999Z,18.57
2017-12-29T23:02:19.579Z,17.00
2017-12-29T23:04:47.145Z,12.40
2017-12-29T23:07:14.954Z,13.07
2017-12-29T23:09:42.525Z,15.17
2017-12-29T23:12:10.077Z,14.17
2017-12-29T23:14:37.673Z,13.17
2017-12-29T23:17:05.422Z,14.13
2017-12-29T23:19:33.048Z,14.10
2017-12-29T23:22:00.860Z,14.07
2017-12-29T23:24:28.417Z,13.83
2017-12-29T23:26:56.111Z,10.37
2017-12-29T23:29:23.661Z,11.03
2017-12-29T23:31:51.398Z,12.67
2017-12-29T23:34:19.116Z,13.90
2017-12-29T23:36:46.673Z,11.53
2017-12-29T23:39:14.233Z,12.30
2017-12-29T23:41:41.790Z,18.80
2017-12-29T23:44:09.387Z,12.93
2017-12-29T23:46:37.140Z,13.93
2017-12-29T23:49:04.709Z,23.63
2017-12-29T23:51:32.281Z,12.60
2017-12-29T23:53:59.992Z,14.80
2017-12-29T23:56:27.657Z,13.73
2017-12-29T23:58:55.402Z,13.03
